Sierra Nevada Aquatic Research Lab (SNARL) Reserve, California Weather observations

Data are for 10 minute period ending at time listed.
 Day   Time   Solar   Ave.   Ave.  Ave.  Vector  Max.   Baro.   Total    
  of    of     Rad.   Air    Rel.  Wind   Wind   Wind  Press.  Precip.   
Year   Day            Temp.  Hum.  Speed  Dir.   Gust                    
2017   (PST)  Kw/m2    F      %     mph   deg.    mph    mb.     in.     
-------------------------------------------------------------------------
  16    6:40   0.00   21.9    46   14.5   209    17.7   786.1    0.00 
  16    6:50   0.00   21.4    47   15.7   208    18.6   786.1    0.00 
  16    7:00   0.00   21.2    48   14.2   210    17.5   786.1    0.00 
  16    7:10   0.00   20.3    49   14.6   212    17.5   786.1    0.00 
  16    7:20   0.00   21.5    46   13.5   213    16.7   786.2    0.00 
  16    7:30   0.01   20.9    47    7.3   224    14.5   786.3    0.00 
  16    7:40   0.01   17.8    51    3.1   355     9.2   786.3    0.00 
  16    7:50   0.01   16.8    54    2.8   353     6.8   786.3    0.00 
  16    8:00   0.07   16.8    54    3.5   335     6.6   786.4    0.00 
  16    8:10   0.15   20.2    46    2.4    63     5.9   786.5    0.00 
  16    8:20   0.18   19.9    48    2.9   355     6.6   786.5    0.00 
  16    8:30   0.21   22.2    44    1.8   343     4.8   786.7    0.00 
  16    8:40   0.24   23.2    42    2.8    42     5.5   786.7    0.00 
  16    8:50   0.27   22.6    44    2.5    84     6.0   786.7    0.00 
  16    9:00   0.30   24.9    42    2.6    15     4.4   786.8    0.00 
  16    9:10   0.33   24.7    43    2.0    46     5.1   787.0    0.00 
  16    9:20   0.36   27.6    40    0.4   126     1.5   787.2    0.00 
  16    9:30   0.38   25.3    43    0.8   208     4.7   787.3    0.00 
  16    9:40   0.41   27.8    40    1.0    23     2.4   787.3    0.00 
  16    9:50   0.43   30.2    37    1.2   317     3.7   787.3    0.00 
  16   10:00   0.46   31.8    35    2.5   225     9.3   787.3    0.00 
  16   10:10   0.48   30.7    35   10.4   213    14.0   787.2    0.00 
  16   10:20   0.50   30.5    36   10.2   213    13.1   787.2    0.00 
  16   10:30   0.52   31.4    34    9.5   228    12.6   787.2    0.00 
  16   10:40   0.53   32.4    34    8.8   230    12.0   787.2    0.00 
  16   10:50   0.55   32.4    34    8.8   229    11.8   787.1    0.00 
  16   11:00   0.56   31.9    38    3.8   250     9.0   787.1    0.00 
  16   11:10   0.57   33.8    37    5.1   218     9.6   786.9    0.00 
  16   11:20   0.58   33.8    34    9.6   218    12.9   786.7    0.00 
  16   11:30   0.59   33.3    37    8.8   221    11.0   786.5    0.00 
  16   11:40   0.59   33.4    38    8.7   224    11.4   786.3    0.00 
  16   11:50   0.60   34.0    37    8.3   230     9.7   786.1    0.00 
  16   12:00   0.60   34.0    39    8.8   225    10.7   785.9    0.00 
  16   12:10   0.60   34.6    39    7.5   225     9.7   785.8    0.00 
  16   12:20   0.60   34.5    42    8.3   235    10.5   785.7    0.00 
  16   12:30   0.59   34.5    41    8.8   226    10.4   785.6    0.00 
  16   12:40   0.59   34.3    45    7.7   235     9.3   785.4    0.00 
  16   12:50   0.58   34.4    44    8.4   219    11.0   785.3    0.00 
  16   13:00   0.57   35.2    40    8.8   214    11.1   785.2    0.00 
  16   13:10   0.56   35.6    39    9.0   219    11.4   785.1    0.00 
  16   13:20   0.55   34.9    41    9.3   209    11.4   785.1    0.00 
  16   13:30   0.53   33.8    44   10.0   206    12.1   785.0    0.00 
  16   13:40   0.52   33.3    45    9.7   205    11.3   784.9    0.00 
  16   13:50   0.50   32.1    48    9.0   207    10.7   784.9    0.00 
  16   14:00   0.48   32.5    47    6.9   215     9.1   784.9    0.00 
  16   14:10   0.46   32.9    46    4.2   238     7.9   785.0    0.00 
  16   14:20   0.44   34.7    43    2.7   246     5.3   785.0    0.00 
  16   14:30   0.41   35.1    40    1.4   245     3.4   785.1    0.00 
  16   14:40   0.39   35.4    37    3.6   205     6.4   785.1    0.00 
  16   14:50   0.36   34.9    36    5.3   202     6.4   785.1    0.00 
  16   15:00   0.34   33.0    42    4.1   204     7.2   785.2    0.00 
  16   15:10   0.31   31.3    42    7.1   214    11.3   785.2    0.00 
  16   15:20   0.28   30.8    41    7.5   216    10.8   785.3    0.00 
  16   15:30   0.26   31.0    41    4.2   254     7.3   785.4    0.00 
  16   15:40   0.22   32.8    34    5.5   254     9.5   785.4    0.00 
  16   15:50   0.12   30.7    38    4.6   261     9.1   785.5    0.00 
  16   16:00   0.01   28.3    37    7.7   253    10.1   785.6    0.00 
  16   16:10   0.01   26.7    40    7.5   250    11.3   785.6    0.00 
  16   16:20   0.01   24.9    43    7.7   227    10.5   785.5    0.00 
  16   16:30   0.01   26.0    38    6.7   253    11.7   785.6    0.00 
  16   16:40   0.01   26.4    38    7.1   236    10.9   785.6    0.00 
  16   16:50   0.00   24.7    41    9.8   223    12.5   785.6    0.00 
  16   17:00   0.00   23.5    44   10.5   222    12.6   785.6    0.00 
  16   17:10   0.00   23.1    46   10.0   225    12.6   785.6    0.00 
  16   17:20   0.00   24.5    42    8.5   249    12.4   785.7    0.00 
  16   17:30   0.00   24.3    43    8.4   248    12.2   785.8    0.00 
  16   17:40   0.00   25.1    41   11.2   243    14.7   785.7    0.00 
  16   17:50   0.00   26.3    39    9.7   252    12.8   785.7    0.00 
  16   18:00   0.00   25.4    38    9.5   240    12.0   785.7    0.00 
  16   18:10   0.00   22.0    44    9.8   241    12.1   785.7    0.00 
  16   18:20   0.00   23.0    41    6.6   262     9.9   785.7    0.00 
  16   18:30   0.00   25.8    34    6.7   275     9.4   785.7    0.00 
  16   18:40   0.00   26.1    33    5.1   275     9.1   785.7    0.00 
  16   18:50   0.00   20.4    44    2.0   104     4.6   785.8    0.00 
  16   19:00   0.00   18.7    45    2.7   261     5.3   785.6    0.00 
  16   19:10   0.00   21.3    40    2.5   257     7.6   785.5    0.00 
  16   19:20   0.00   19.0    46    0.7   261     4.6   785.4    0.00 
  16   19:30   0.00   20.1    40    2.1   250     6.6   785.4    0.00 
  16   19:40   0.00   21.3    38    2.7   258     6.8   785.4    0.00 
  16   19:50   0.00   17.0    47    1.1   123     2.7   785.5    0.00 
  16   20:00   0.00   16.1    52    1.8   298     4.8   785.5    0.00 
  16   20:10   0.00   15.1    50    2.4   299     8.2   785.5    0.00 
  16   20:20   0.00   14.2    50    2.6   308     7.3   785.5    0.00 
  16   20:30   0.00   16.1    50    1.8   342     6.3   785.5    0.00 
  16   20:40   0.00   14.8    51    1.0    83     3.4   785.6    0.00 
  16   20:50   0.00   14.4    50    1.2   227     4.7   785.7    0.00 
  16   21:00   0.00   14.1    50    1.3   283     4.2   785.7    0.00 
  16   21:10   0.00   13.3    52    1.1   129     4.2   785.8    0.00 
  16   21:20   0.00   14.6    52    2.3   182     8.8   785.9    0.00 
  16   21:30   0.00   18.0    44    4.2   243    10.4   785.9    0.00 
  16   21:40   0.00   19.3    42    5.4   212    13.1   785.8    0.00 
  16   21:50   0.00   20.1    40    6.3   236    11.0   785.7    0.00 
  16   22:00   0.00   22.5    36    3.4   232     8.1   785.6    0.00 
  16   22:10   0.00   20.3    38    2.8   317     7.2   785.7    0.00 
  16   22:20   0.00   17.0    47    2.7    96     4.4   785.8    0.00 
  16   22:30   0.00   14.9    52    1.9    52     4.4   785.8    0.00 
  16   22:40   0.00   14.3    51    4.1   319     7.9   785.9    0.00 
  16   22:50   0.00   12.9    51    2.4   280     7.2   785.9    0.00 
  16   23:00   0.00   12.8    52    3.7   354     6.8   785.9    0.00 
  16   23:10   0.00   13.4    51    2.4     1     5.3   785.7    0.00 
  16   23:20   0.00   13.4    50    1.6   296     5.3   785.6    0.00 
  16   23:30   0.00   16.6    42    6.8   256    11.3   785.5    0.00 
  16   23:40   0.00   25.3    26    6.9   280     9.4   785.5    0.00 
  16   23:50   0.00   25.6    27    6.4   273    10.2   785.4    0.00 
  17    0:00   0.00   22.5    32    2.8   283     5.8   785.4    0.00 
  17    0:10   0.00   16.2    45    4.3    79     7.7   785.2    0.00 
  17    0:20   0.00   13.7    51    2.4    71     4.2   785.0    0.00 
  17    0:30   0.00   12.9    52    4.7    85    10.7   785.0    0.00 
  17    0:40   0.00   14.6    52    5.1    72     9.8   785.1    0.00 
  17    0:50   0.00   15.7    47    1.3   100     6.0   785.1    0.00 
  17    1:00   0.00   12.2    52    1.5   263     3.4   785.0    0.00 
  17    1:10   0.00   11.1    51    1.0   160     2.0   784.9    0.00 
  17    1:20   0.00    8.5    55    1.5   104     4.1   784.7    0.00 
  17    1:30   0.00    7.7    60    0.5   297     1.8   784.5    0.00 
  17    1:40   0.00    7.0    63    0.3   277     2.4   784.5    0.00 
  17    1:50   0.00    6.5    65    2.8   107     3.9   784.4    0.00 
  17    2:00   0.00    6.5    63    1.6   120     4.2   784.5    0.00 
  17    2:10   0.00    8.2    59    1.1   251     3.5   784.5    0.00 
  17    2:20   0.00    8.9    57    3.0   310     5.6   784.4    0.00 
  17    2:30   0.00    9.3    57    2.1   315     4.6   784.5    0.00 
  17    2:40   0.00    9.5    59    1.4   288     3.4   784.5    0.00 
  17    2:50   0.00    7.0    66    3.1   297     5.6   784.4    0.00 
  17    3:00   0.00    5.6    64    2.7   282     5.0   784.2    0.00 
  17    3:10   0.00    5.5    66    1.9   226     3.7   784.2    0.00 
  17    3:20   0.00    5.7    65    1.4    38     2.6   784.2    0.00 
  17    3:30   0.00    5.9    60    1.5   234     3.1   784.2    0.00 
  17    3:40   0.00    4.4    64    1.1   283     3.1   784.2    0.00 
  17    3:50   0.00    4.2    67    1.4   281     3.7   784.2    0.00 
  17    4:00   0.00    3.6    67    1.1   231     2.9   784.1    0.00 
  17    4:10   0.00    3.1    66    0.8   195     2.3   784.0    0.00 
  17    4:20   0.00    4.3    65    0.9   162     2.7   784.0    0.00 
  17    4:30   0.00    4.9    66    2.3    88     5.0   784.0    0.00 
  17    4:40   0.00    4.0    70    3.1   103     5.7   784.0    0.00 
  17    4:50   0.00    6.3    68    2.4   110     5.3   784.0    0.00 
  17    5:00   0.00    5.9    64    1.5   114     3.5   784.0    0.00 
  17    5:10   0.00    5.5    70    2.2    93     3.7   783.9    0.00 
  17    5:20   0.00    5.9    65    1.0    84     2.8   784.0    0.00 
  17    5:30   0.00    5.0    64    0.5   181     2.3   784.1    0.00 
  17    5:40   0.00    2.4    70    0.4   176     1.7   784.2    0.00 
  17    5:50   0.00    3.7    70    0.7   226     1.8   784.2    0.00 
  17    6:00   0.00    4.2    68    1.6    92     2.7   784.4    0.00 
  17    6:10   0.00    4.9    72    1.4   357     3.4   784.5    0.00 
  17    6:20   0.00    4.9    67    1.5   309     3.1   784.5    0.00 
  17    6:30   0.00    1.3    72    0.0     0     0.0   784.6    0.00 

Return to SNARL Reserve graphs page.


Western Regional Climate Center,wrcc@dri.edu